sensor_id;sensor_type;location;lat;lon;timestamp;P1;durP1;ratioP1;P2;durP2;ratioP2
79710;SDS011;69465;51.630;6.570;2023-06-26T00:00:14;12.17;;;9.57;;
79710;SDS011;69465;51.630;6.570;2023-06-26T00:02:41;13.23;;;10.10;;
79710;SDS011;69465;51.630;6.570;2023-06-26T00:05:07;10.43;;;9.23;;
79710;SDS011;69465;51.630;6.570;2023-06-26T00:07:34;13.97;;;10.10;;
79710;SDS011;69465;51.630;6.570;2023-06-26T00:10:02;11.17;;;9.60;;
79710;SDS011;69465;51.630;6.570;2023-06-26T00:12:30;11.33;;;9.60;;
79710;SDS011;69465;51.630;6.570;2023-06-26T00:14:58;11.37;;;8.80;;
79710;SDS011;69465;51.630;6.570;2023-06-26T00:17:24;9.80;;;8.53;;
79710;SDS011;69465;51.630;6.570;2023-06-26T00:19:51;10.57;;;8.20;;
79710;SDS011;69465;51.630;6.570;2023-06-26T00:22:18;12.37;;;9.50;;
79710;SDS011;69465;51.630;6.570;2023-06-26T00:24:45;12.27;;;9.37;;
79710;SDS011;69465;51.630;6.570;2023-06-26T00:27:12;13.50;;;9.50;;
79710;SDS011;69465;51.630;6.570;2023-06-26T00:29:39;11.33;;;9.30;;
79710;SDS011;69465;51.630;6.570;2023-06-26T00:32:06;9.87;;;8.83;;
79710;SDS011;69465;51.630;6.570;2023-06-26T00:34:32;10.47;;;9.07;;
79710;SDS011;69465;51.630;6.570;2023-06-26T00:36:59;18.70;;;16.97;;
79710;SDS011;69465;51.630;6.570;2023-06-26T00:39:26;10.57;;;9.40;;
79710;SDS011;69465;51.630;6.570;2023-06-26T00:41:53;12.47;;;10.50;;
79710;SDS011;69465;51.630;6.570;2023-06-26T00:44:19;13.13;;;10.07;;
79710;SDS011;69465;51.630;6.570;2023-06-26T00:46:46;11.90;;;9.30;;
79710;SDS011;69465;51.630;6.570;2023-06-26T00:49:13;12.10;;;10.30;;
79710;SDS011;69465;51.630;6.570;2023-06-26T00:51:40;15.83;;;9.90;;
79710;SDS011;69465;51.630;6.570;2023-06-26T00:54:08;12.80;;;9.87;;
79710;SDS011;69465;51.630;6.570;2023-06-26T00:56:35;13.07;;;10.10;;
79710;SDS011;69465;51.630;6.570;2023-06-26T00:59:02;10.23;;;9.13;;
79710;SDS011;69465;51.630;6.570;2023-06-26T01:01:29;13.30;;;9.57;;
79710;SDS011;69465;51.630;6.570;2023-06-26T01:03:56;12.57;;;10.47;;
79710;SDS011;69465;51.630;6.570;2023-06-26T01:06:23;12.77;;;10.53;;
79710;SDS011;69465;51.630;6.570;2023-06-26T01:08:51;12.33;;;10.10;;
79710;SDS011;69465;51.630;6.570;2023-06-26T01:11:19;11.10;;;9.50;;
79710;SDS011;69465;51.630;6.570;2023-06-26T01:13:46;11.20;;;9.40;;
79710;SDS011;69465;51.630;6.570;2023-06-26T01:16:13;12.33;;;10.17;;
79710;SDS011;69465;51.630;6.570;2023-06-26T01:18:41;11.97;;;9.90;;
79710;SDS011;69465;51.630;6.570;2023-06-26T01:21:09;11.63;;;9.77;;
79710;SDS011;69465;51.630;6.570;2023-06-26T01:23:38;11.90;;;10.30;;
79710;SDS011;69465;51.630;6.570;2023-06-26T01:26:19;14.50;;;10.97;;
79710;SDS011;69465;51.630;6.570;2023-06-26T01:28:47;13.27;;;10.27;;
79710;SDS011;69465;51.630;6.570;2023-06-26T01:31:16;12.43;;;10.47;;
79710;SDS011;69465;51.630;6.570;2023-06-26T01:33:44;12.13;;;10.63;;
79710;SDS011;69465;51.630;6.570;2023-06-26T01:36:12;11.67;;;10.33;;
79710;SDS011;69465;51.630;6.570;2023-06-26T01:38:38;14.60;;;10.93;;
79710;SDS011;69465;51.630;6.570;2023-06-26T01:41:05;13.10;;;10.60;;
79710;SDS011;69465;51.630;6.570;2023-06-26T01:43:46;12.63;;;10.67;;
79710;SDS011;69465;51.630;6.570;2023-06-26T01:46:39;12.97;;;11.03;;
79710;SDS011;69465;51.630;6.570;2023-06-26T01:54:49;11.40;;;9.20;;
79710;SDS011;69465;51.630;6.570;2023-06-26T01:57:27;13.17;;;10.47;;
79710;SDS011;69465;51.630;6.570;2023-06-26T01:59:56;13.10;;;10.63;;
79710;SDS011;69465;51.630;6.570;2023-06-26T02:02:24;12.33;;;11.00;;
79710;SDS011;69465;51.630;6.570;2023-06-26T02:04:51;15.60;;;11.37;;
79710;SDS011;69465;51.630;6.570;2023-06-26T02:07:18;13.77;;;11.30;;
79710;SDS011;69465;51.630;6.570;2023-06-26T02:09:45;13.13;;;11.23;;
79710;SDS011;69465;51.630;6.570;2023-06-26T02:12:12;11.37;;;9.77;;
79710;SDS011;69465;51.630;6.570;2023-06-26T02:14:38;12.97;;;11.00;;
79710;SDS011;69465;51.630;6.570;2023-06-26T02:17:05;14.93;;;10.87;;
79710;SDS011;69465;51.630;6.570;2023-06-26T02:19:32;14.90;;;11.87;;
79710;SDS011;69465;51.630;6.570;2023-06-26T02:21:59;14.33;;;11.67;;
79710;SDS011;69465;51.630;6.570;2023-06-26T02:24:25;15.73;;;11.27;;
79710;SDS011;69465;51.630;6.570;2023-06-26T02:26:52;11.83;;;10.73;;
79710;SDS011;69465;51.630;6.570;2023-06-26T02:29:19;12.93;;;11.53;;
79710;SDS011;69465;51.630;6.570;2023-06-26T02:31:46;12.10;;;10.80;;
79710;SDS011;69465;51.630;6.570;2023-06-26T02:34:12;14.03;;;11.43;;
79710;SDS011;69465;51.630;6.570;2023-06-26T02:36:39;16.13;;;12.03;;
79710;SDS011;69465;51.630;6.570;2023-06-26T02:39:06;15.80;;;12.27;;
79710;SDS011;69465;51.630;6.570;2023-06-26T02:41:33;14.73;;;12.57;;
79710;SDS011;69465;51.630;6.570;2023-06-26T02:43:59;16.23;;;13.03;;
79710;SDS011;69465;51.630;6.570;2023-06-26T02:46:26;16.10;;;11.83;;
79710;SDS011;69465;51.630;6.570;2023-06-26T02:48:53;14.10;;;12.17;;
79710;SDS011;69465;51.630;6.570;2023-06-26T02:51:19;14.17;;;12.67;;
79710;SDS011;69465;51.630;6.570;2023-06-26T02:53:46;14.53;;;12.23;;
79710;SDS011;69465;51.630;6.570;2023-06-26T02:56:13;14.87;;;11.23;;
79710;SDS011;69465;51.630;6.570;2023-06-26T02:58:40;12.93;;;11.60;;
79710;SDS011;69465;51.630;6.570;2023-06-26T03:01:06;12.97;;;11.50;;
79710;SDS011;69465;51.630;6.570;2023-06-26T03:03:33;12.97;;;11.30;;
79710;SDS011;69465;51.630;6.570;2023-06-26T03:05:59;14.17;;;12.57;;
79710;SDS011;69465;51.630;6.570;2023-06-26T03:08:26;16.40;;;12.07;;
79710;SDS011;69465;51.630;6.570;2023-06-26T03:10:53;16.10;;;13.03;;
79710;SDS011;69465;51.630;6.570;2023-06-26T03:13:20;15.73;;;12.13;;
79710;SDS011;69465;51.630;6.570;2023-06-26T03:15:46;13.83;;;11.30;;
79710;SDS011;69465;51.630;6.570;2023-06-26T03:18:13;13.13;;;11.73;;
79710;SDS011;69465;51.630;6.570;2023-06-26T03:20:40;17.53;;;13.07;;
79710;SDS011;69465;51.630;6.570;2023-06-26T03:23:07;13.53;;;12.23;;
79710;SDS011;69465;51.630;6.570;2023-06-26T03:25:34;14.87;;;13.37;;
79710;SDS011;69465;51.630;6.570;2023-06-26T03:28:01;16.03;;;11.90;;
79710;SDS011;69465;51.630;6.570;2023-06-26T03:30:27;14.60;;;12.53;;
79710;SDS011;69465;51.630;6.570;2023-06-26T03:32:54;14.77;;;12.33;;
79710;SDS011;69465;51.630;6.570;2023-06-26T03:35:21;14.27;;;12.20;;
79710;SDS011;69465;51.630;6.570;2023-06-26T03:37:48;15.37;;;13.77;;
79710;SDS011;69465;51.630;6.570;2023-06-26T03:40:15;17.83;;;14.37;;
79710;SDS011;69465;51.630;6.570;2023-06-26T03:42:42;13.93;;;12.47;;
79710;SDS011;69465;51.630;6.570;2023-06-26T03:45:08;16.23;;;13.03;;
79710;SDS011;69465;51.630;6.570;2023-06-26T03:47:35;16.37;;;14.60;;
79710;SDS011;69465;51.630;6.570;2023-06-26T03:50:02;17.30;;;13.70;;
79710;SDS011;69465;51.630;6.570;2023-06-26T03:52:29;15.53;;;13.80;;
79710;SDS011;69465;51.630;6.570;2023-06-26T03:54:56;16.40;;;13.80;;
79710;SDS011;69465;51.630;6.570;2023-06-26T03:57:24;16.20;;;14.40;;
79710;SDS011;69465;51.630;6.570;2023-06-26T03:59:51;19.57;;;12.63;;
79710;SDS011;69465;51.630;6.570;2023-06-26T04:02:18;16.97;;;13.30;;
79710;SDS011;69465;51.630;6.570;2023-06-26T04:04:45;15.87;;;12.53;;
79710;SDS011;69465;51.630;6.570;2023-06-26T04:07:12;15.13;;;12.47;;
79710;SDS011;69465;51.630;6.570;2023-06-26T04:09:38;16.07;;;11.47;;
79710;SDS011;69465;51.630;6.570;2023-06-26T04:12:05;13.83;;;11.70;;
79710;SDS011;69465;51.630;6.570;2023-06-26T04:14:34;16.60;;;11.20;;
79710;SDS011;69465;51.630;6.570;2023-06-26T04:17:01;11.67;;;10.17;;
79710;SDS011;69465;51.630;6.570;2023-06-26T04:19:28;13.33;;;10.23;;
79710;SDS011;69465;51.630;6.570;2023-06-26T04:21:56;13.07;;;9.90;;
79710;SDS011;69465;51.630;6.570;2023-06-26T04:24:23;14.90;;;10.10;;
79710;SDS011;69465;51.630;6.570;2023-06-26T04:26:50;12.33;;;9.70;;
79710;SDS011;69465;51.630;6.570;2023-06-26T04:29:17;13.80;;;9.20;;
79710;SDS011;69465;51.630;6.570;2023-06-26T04:31:43;10.97;;;8.87;;
79710;SDS011;69465;51.630;6.570;2023-06-26T04:34:10;10.43;;;8.17;;
79710;SDS011;69465;51.630;6.570;2023-06-26T04:36:37;9.27;;;7.27;;
79710;SDS011;69465;51.630;6.570;2023-06-26T04:39:04;9.40;;;7.87;;
79710;SDS011;69465;51.630;6.570;2023-06-26T04:41:31;11.50;;;8.20;;
79710;SDS011;69465;51.630;6.570;2023-06-26T04:43:57;15.50;;;7.97;;
79710;SDS011;69465;51.630;6.570;2023-06-26T04:46:24;9.20;;;7.50;;
79710;SDS011;69465;51.630;6.570;2023-06-26T04:48:51;7.83;;;6.77;;
79710;SDS011;69465;51.630;6.570;2023-06-26T04:51:18;10.13;;;6.73;;
79710;SDS011;69465;51.630;6.570;2023-06-26T04:53:44;10.97;;;7.30;;
79710;SDS011;69465;51.630;6.570;2023-06-26T04:56:11;8.90;;;6.47;;
79710;SDS011;69465;51.630;6.570;2023-06-26T04:58:38;18.03;;;7.47;;
79710;SDS011;69465;51.630;6.570;2023-06-26T05:01:05;9.07;;;7.23;;
79710;SDS011;69465;51.630;6.570;2023-06-26T05:03:31;10.70;;;6.93;;
79710;SDS011;69465;51.630;6.570;2023-06-26T05:05:58;9.60;;;7.10;;
79710;SDS011;69465;51.630;6.570;2023-06-26T05:08:31;7.83;;;6.40;;
79710;SDS011;69465;51.630;6.570;2023-06-26T05:10:57;10.73;;;5.77;;
79710;SDS011;69465;51.630;6.570;2023-06-26T05:13:25;8.37;;;6.10;;
79710;SDS011;69465;51.630;6.570;2023-06-26T05:15:51;8.23;;;6.10;;
79710;SDS011;69465;51.630;6.570;2023-06-26T05:18:19;7.97;;;6.43;;
79710;SDS011;69465;51.630;6.570;2023-06-26T05:20:45;8.73;;;5.70;;
79710;SDS011;69465;51.630;6.570;2023-06-26T05:23:13;10.43;;;6.30;;
79710;SDS011;69465;51.630;6.570;2023-06-26T05:25:40;9.67;;;6.70;;
79710;SDS011;69465;51.630;6.570;2023-06-26T05:28:07;9.77;;;6.30;;
79710;SDS011;69465;51.630;6.570;2023-06-26T05:30:34;8.83;;;6.80;;
79710;SDS011;69465;51.630;6.570;2023-06-26T05:33:02;10.60;;;6.70;;
79710;SDS011;69465;51.630;6.570;2023-06-26T05:35:29;8.77;;;6.43;;
79710;SDS011;69465;51.630;6.570;2023-06-26T05:37:57;13.43;;;6.83;;
79710;SDS011;69465;51.630;6.570;2023-06-26T05:40:24;9.27;;;5.83;;
79710;SDS011;69465;51.630;6.570;2023-06-26T05:42:51;15.13;;;8.63;;
79710;SDS011;69465;51.630;6.570;2023-06-26T05:45:18;8.73;;;5.90;;
79710;SDS011;69465;51.630;6.570;2023-06-26T05:47:45;10.77;;;5.93;;
79710;SDS011;69465;51.630;6.570;2023-06-26T05:50:12;9.97;;;6.27;;
79710;SDS011;69465;51.630;6.570;2023-06-26T05:52:40;10.03;;;5.80;;
79710;SDS011;69465;51.630;6.570;2023-06-26T05:55:07;12.83;;;6.67;;
79710;SDS011;69465;51.630;6.570;2023-06-26T05:57:34;11.73;;;6.87;;
79710;SDS011;69465;51.630;6.570;2023-06-26T06:00:03;12.90;;;6.03;;
79710;SDS011;69465;51.630;6.570;2023-06-26T06:02:30;8.73;;;6.07;;
79710;SDS011;69465;51.630;6.570;2023-06-26T06:04:57;10.80;;;5.67;;
79710;SDS011;69465;51.630;6.570;2023-06-26T06:07:24;35.10;;;32.70;;
79710;SDS011;69465;51.630;6.570;2023-06-26T06:09:51;10.17;;;5.47;;
79710;SDS011;69465;51.630;6.570;2023-06-26T06:12:18;10.45;;;5.40;;
79710;SDS011;69465;51.630;6.570;2023-06-26T06:14:45;9.63;;;5.73;;
79710;SDS011;69465;51.630;6.570;2023-06-26T06:17:11;11.53;;;5.50;;
79710;SDS011;69465;51.630;6.570;2023-06-26T06:19:38;13.33;;;5.40;;
79710;SDS011;69465;51.630;6.570;2023-06-26T06:22:05;13.17;;;5.30;;
79710;SDS011;69465;51.630;6.570;2023-06-26T06:24:32;11.13;;;5.53;;
79710;SDS011;69465;51.630;6.570;2023-06-26T06:26:58;8.90;;;5.13;;
79710;SDS011;69465;51.630;6.570;2023-06-26T06:29:25;16.23;;;6.07;;
79710;SDS011;69465;51.630;6.570;2023-06-26T06:31:52;12.20;;;5.97;;
79710;SDS011;69465;51.630;6.570;2023-06-26T06:34:19;14.67;;;6.37;;
79710;SDS011;69465;51.630;6.570;2023-06-26T06:36:46;10.93;;;5.97;;
79710;SDS011;69465;51.630;6.570;2023-06-26T06:39:13;11.60;;;6.70;;
79710;SDS011;69465;51.630;6.570;2023-06-26T06:41:39;17.37;;;6.83;;
79710;SDS011;69465;51.630;6.570;2023-06-26T06:44:06;13.03;;;6.63;;
79710;SDS011;69465;51.630;6.570;2023-06-26T06:46:33;12.50;;;6.57;;
79710;SDS011;69465;51.630;6.570;2023-06-26T06:49:00;13.53;;;6.60;;
79710;SDS011;69465;51.630;6.570;2023-06-26T06:51:26;15.30;;;6.83;;
79710;SDS011;69465;51.630;6.570;2023-06-26T06:53:53;12.57;;;7.03;;
79710;SDS011;69465;51.630;6.570;2023-06-26T06:56:20;10.60;;;5.87;;
79710;SDS011;69465;51.630;6.570;2023-06-26T06:58:47;12.57;;;5.87;;
79710;SDS011;69465;51.630;6.570;2023-06-26T07:01:14;8.70;;;5.00;;
79710;SDS011;69465;51.630;6.570;2023-06-26T07:03:40;11.27;;;6.00;;
79710;SDS011;69465;51.630;6.570;2023-06-26T07:06:08;14.03;;;6.53;;
79710;SDS011;69465;51.630;6.570;2023-06-26T07:08:34;12.77;;;5.93;;
79710;SDS011;69465;51.630;6.570;2023-06-26T07:11:01;21.73;;;6.73;;
79710;SDS011;69465;51.630;6.570;2023-06-26T07:13:27;12.13;;;6.60;;
79710;SDS011;69465;51.630;6.570;2023-06-26T07:15:54;10.13;;;5.00;;
79710;SDS011;69465;51.630;6.570;2023-06-26T07:18:21;14.77;;;5.67;;
79710;SDS011;69465;51.630;6.570;2023-06-26T07:20:48;11.70;;;5.47;;
79710;SDS011;69465;51.630;6.570;2023-06-26T07:23:15;11.40;;;5.80;;
79710;SDS011;69465;51.630;6.570;2023-06-26T07:25:41;13.80;;;5.87;;
79710;SDS011;69465;51.630;6.570;2023-06-26T07:28:11;12.07;;;5.77;;
79710;SDS011;69465;51.630;6.570;2023-06-26T07:30:38;10.77;;;5.20;;
79710;SDS011;69465;51.630;6.570;2023-06-26T07:33:05;10.73;;;4.87;;
79710;SDS011;69465;51.630;6.570;2023-06-26T07:35:32;9.80;;;5.03;;
79710;SDS011;69465;51.630;6.570;2023-06-26T07:37:59;10.27;;;5.17;;
79710;SDS011;69465;51.630;6.570;2023-06-26T07:40:26;8.50;;;4.70;;
79710;SDS011;69465;51.630;6.570;2023-06-26T07:42:53;10.17;;;5.17;;
79710;SDS011;69465;51.630;6.570;2023-06-26T07:45:19;12.20;;;4.93;;
79710;SDS011;69465;51.630;6.570;2023-06-26T07:47:46;9.93;;;5.17;;
79710;SDS011;69465;51.630;6.570;2023-06-26T07:50:13;8.83;;;4.10;;
79710;SDS011;69465;51.630;6.570;2023-06-26T07:52:40;9.17;;;4.47;;
79710;SDS011;69465;51.630;6.570;2023-06-26T07:55:06;10.43;;;5.00;;
79710;SDS011;69465;51.630;6.570;2023-06-26T07:57:34;11.03;;;4.93;;
79710;SDS011;69465;51.630;6.570;2023-06-26T08:00:00;12.10;;;5.33;;
79710;SDS011;69465;51.630;6.570;2023-06-26T08:02:27;11.57;;;5.20;;
79710;SDS011;69465;51.630;6.570;2023-06-26T08:04:54;13.20;;;4.67;;
79710;SDS011;69465;51.630;6.570;2023-06-26T08:07:20;12.10;;;4.90;;
79710;SDS011;69465;51.630;6.570;2023-06-26T08:09:47;9.90;;;4.60;;
79710;SDS011;69465;51.630;6.570;2023-06-26T08:12:14;11.50;;;4.83;;
79710;SDS011;69465;51.630;6.570;2023-06-26T08:14:41;8.23;;;4.20;;
79710;SDS011;69465;51.630;6.570;2023-06-26T08:17:07;9.30;;;4.77;;
79710;SDS011;69465;51.630;6.570;2023-06-26T08:19:34;13.50;;;4.93;;
79710;SDS011;69465;51.630;6.570;2023-06-26T08:22:01;9.87;;;4.77;;
79710;SDS011;69465;51.630;6.570;2023-06-26T08:24:28;9.87;;;4.20;;
79710;SDS011;69465;51.630;6.570;2023-06-26T08:26:54;11.67;;;4.70;;
79710;SDS011;69465;51.630;6.570;2023-06-26T08:29:21;11.40;;;4.97;;
79710;SDS011;69465;51.630;6.570;2023-06-26T08:31:47;9.33;;;4.60;;
79710;SDS011;69465;51.630;6.570;2023-06-26T08:34:14;12.50;;;5.07;;
79710;SDS011;69465;51.630;6.570;2023-06-26T08:36:40;6.93;;;4.40;;
79710;SDS011;69465;51.630;6.570;2023-06-26T08:39:07;7.87;;;4.30;;
79710;SDS011;69465;51.630;6.570;2023-06-26T08:41:34;7.67;;;3.73;;
79710;SDS011;69465;51.630;6.570;2023-06-26T08:44:01;6.13;;;3.20;;
79710;SDS011;69465;51.630;6.570;2023-06-26T08:46:28;8.20;;;6.10;;
79710;SDS011;69465;51.630;6.570;2023-06-26T08:48:56;6.33;;;3.80;;
79710;SDS011;69465;51.630;6.570;2023-06-26T08:51:28;10.13;;;7.93;;
79710;SDS011;69465;51.630;6.570;2023-06-26T08:53:59;6.67;;;4.93;;
79710;SDS011;69465;51.630;6.570;2023-06-26T08:56:32;8.90;;;3.60;;
79710;SDS011;69465;51.630;6.570;2023-06-26T08:59:02;10.40;;;3.70;;
79710;SDS011;69465;51.630;6.570;2023-06-26T09:01:29;7.43;;;3.70;;
79710;SDS011;69465;51.630;6.570;2023-06-26T09:03:57;11.30;;;4.33;;
79710;SDS011;69465;51.630;6.570;2023-06-26T09:06:24;6.00;;;3.43;;
79710;SDS011;69465;51.630;6.570;2023-06-26T09:08:51;5.67;;;3.30;;
79710;SDS011;69465;51.630;6.570;2023-06-26T09:11:17;5.43;;;3.70;;
79710;SDS011;69465;51.630;6.570;2023-06-26T09:13:44;9.10;;;4.00;;
79710;SDS011;69465;51.630;6.570;2023-06-26T09:16:12;5.70;;;3.93;;
79710;SDS011;69465;51.630;6.570;2023-06-26T09:18:40;6.40;;;3.83;;
79710;SDS011;69465;51.630;6.570;2023-06-26T09:21:07;5.67;;;3.60;;
79710;SDS011;69465;51.630;6.570;2023-06-26T09:23:35;5.67;;;3.80;;
79710;SDS011;69465;51.630;6.570;2023-06-26T09:26:05;4.90;;;3.60;;
79710;SDS011;69465;51.630;6.570;2023-06-26T09:28:32;5.73;;;3.50;;
79710;SDS011;69465;51.630;6.570;2023-06-26T09:31:01;6.33;;;3.53;;
79710;SDS011;69465;51.630;6.570;2023-06-26T09:33:35;7.97;;;3.87;;
79710;SDS011;69465;51.630;6.570;2023-06-26T09:36:08;6.03;;;3.57;;
79710;SDS011;69465;51.630;6.570;2023-06-26T09:38:45;7.10;;;3.67;;
79710;SDS011;69465;51.630;6.570;2023-06-26T09:41:12;6.07;;;3.33;;
79710;SDS011;69465;51.630;6.570;2023-06-26T09:43:49;7.57;;;4.00;;
79710;SDS011;69465;51.630;6.570;2023-06-26T09:46:16;7.63;;;3.60;;
79710;SDS011;69465;51.630;6.570;2023-06-26T09:49:03;5.07;;;2.90;;
79710;SDS011;69465;51.630;6.570;2023-06-26T09:51:32;6.43;;;3.43;;
79710;SDS011;69465;51.630;6.570;2023-06-26T09:54:00;6.77;;;3.43;;
79710;SDS011;69465;51.630;6.570;2023-06-26T09:56:27;4.60;;;3.60;;
79710;SDS011;69465;51.630;6.570;2023-06-26T09:58:55;6.57;;;3.63;;
79710;SDS011;69465;51.630;6.570;2023-06-26T10:01:23;6.53;;;3.60;;
79710;SDS011;69465;51.630;6.570;2023-06-26T10:03:53;6.00;;;3.90;;
79710;SDS011;69465;51.630;6.570;2023-06-26T10:07:04;5.77;;;3.73;;
79710;SDS011;69465;51.630;6.570;2023-06-26T10:09:13;4.43;;;3.07;;
79710;SDS011;69465;51.630;6.570;2023-06-26T10:11:51;8.37;;;3.10;;
79710;SDS011;69465;51.630;6.570;2023-06-26T10:14:42;5.03;;;2.87;;
79710;SDS011;69465;51.630;6.570;2023-06-26T10:17:14;7.77;;;3.30;;
79710;SDS011;69465;51.630;6.570;2023-06-26T10:19:45;3.77;;;2.50;;
79710;SDS011;69465;51.630;6.570;2023-06-26T10:22:15;5.97;;;2.30;;
79710;SDS011;69465;51.630;6.570;2023-06-26T10:24:43;3.60;;;2.27;;
79710;SDS011;69465;51.630;6.570;2023-06-26T10:27:16;6.10;;;2.03;;
79710;SDS011;69465;51.630;6.570;2023-06-26T10:29:46;3.00;;;2.20;;
79710;SDS011;69465;51.630;6.570;2023-06-26T10:32:21;4.00;;;2.20;;
79710;SDS011;69465;51.630;6.570;2023-06-26T10:34:51;6.63;;;2.03;;
79710;SDS011;69465;51.630;6.570;2023-06-26T10:37:18;5.23;;;2.40;;
79710;SDS011;69465;51.630;6.570;2023-06-26T10:42:11;5.00;;;2.30;;
79710;SDS011;69465;51.630;6.570;2023-06-26T10:44:42;3.27;;;2.10;;
79710;SDS011;69465;51.630;6.570;2023-06-26T10:47:09;4.67;;;2.57;;
79710;SDS011;69465;51.630;6.570;2023-06-26T10:49:37;3.93;;;2.20;;
79710;SDS011;69465;51.630;6.570;2023-06-26T10:52:04;3.13;;;1.90;;
79710;SDS011;69465;51.630;6.570;2023-06-26T10:54:32;3.77;;;1.70;;
79710;SDS011;69465;51.630;6.570;2023-06-26T10:56:59;3.77;;;1.67;;
79710;SDS011;69465;51.630;6.570;2023-06-26T10:59:27;6.20;;;1.97;;
79710;SDS011;69465;51.630;6.570;2023-06-26T11:01:59;4.90;;;1.70;;
79710;SDS011;69465;51.630;6.570;2023-06-26T11:04:46;4.97;;;1.90;;
79710;SDS011;69465;51.630;6.570;2023-06-26T11:07:17;3.00;;;1.40;;
79710;SDS011;69465;51.630;6.570;2023-06-26T11:09:56;5.33;;;1.50;;
79710;SDS011;69465;51.630;6.570;2023-06-26T11:12:43;2.03;;;1.60;;
79710;SDS011;69465;51.630;6.570;2023-06-26T11:15:11;3.67;;;1.80;;
79710;SDS011;69465;51.630;6.570;2023-06-26T11:17:39;2.20;;;1.70;;
79710;SDS011;69465;51.630;6.570;2023-06-26T11:20:08;3.43;;;1.70;;
79710;SDS011;69465;51.630;6.570;2023-06-26T11:22:37;3.70;;;1.57;;
79710;SDS011;69465;51.630;6.570;2023-06-26T11:25:05;4.33;;;1.93;;
79710;SDS011;69465;51.630;6.570;2023-06-26T11:27:39;4.20;;;1.70;;
79710;SDS011;69465;51.630;6.570;2023-06-26T11:30:07;5.30;;;1.50;;
79710;SDS011;69465;51.630;6.570;2023-06-26T11:32:38;2.97;;;1.27;;
79710;SDS011;69465;51.630;6.570;2023-06-26T11:35:05;2.53;;;1.40;;
79710;SDS011;69465;51.630;6.570;2023-06-26T11:37:32;3.93;;;1.60;;
79710;SDS011;69465;51.630;6.570;2023-06-26T11:39:59;2.13;;;1.10;;
79710;SDS011;69465;51.630;6.570;2023-06-26T11:42:25;3.30;;;1.53;;
79710;SDS011;69465;51.630;6.570;2023-06-26T11:44:53;5.03;;;1.40;;
79710;SDS011;69465;51.630;6.570;2023-06-26T11:47:20;3.83;;;1.70;;
79710;SDS011;69465;51.630;6.570;2023-06-26T11:49:48;4.67;;;1.70;;
79710;SDS011;69465;51.630;6.570;2023-06-26T11:52:15;4.07;;;1.60;;
79710;SDS011;69465;51.630;6.570;2023-06-26T11:54:42;3.13;;;1.57;;
79710;SDS011;69465;51.630;6.570;2023-06-26T11:57:12;3.60;;;1.90;;
79710;SDS011;69465;51.630;6.570;2023-06-26T11:59:40;4.07;;;1.70;;
79710;SDS011;69465;51.630;6.570;2023-06-26T12:02:07;6.07;;;1.57;;
79710;SDS011;69465;51.630;6.570;2023-06-26T12:04:43;2.63;;;1.33;;
79710;SDS011;69465;51.630;6.570;2023-06-26T12:07:11;2.97;;;1.30;;
79710;SDS011;69465;51.630;6.570;2023-06-26T12:09:43;2.93;;;1.37;;
79710;SDS011;69465;51.630;6.570;2023-06-26T12:12:12;2.13;;;1.10;;
79710;SDS011;69465;51.630;6.570;2023-06-26T12:14:42;1.80;;;1.37;;
79710;SDS011;69465;51.630;6.570;2023-06-26T12:17:10;3.47;;;1.30;;
79710;SDS011;69465;51.630;6.570;2023-06-26T12:19:38;3.90;;;1.50;;
79710;SDS011;69465;51.630;6.570;2023-06-26T12:22:06;3.37;;;1.30;;
79710;SDS011;69465;51.630;6.570;2023-06-26T12:24:35;4.43;;;1.30;;
79710;SDS011;69465;51.630;6.570;2023-06-26T12:27:07;1.63;;;1.33;;
79710;SDS011;69465;51.630;6.570;2023-06-26T12:29:35;3.47;;;1.53;;
79710;SDS011;69465;51.630;6.570;2023-06-26T12:32:02;4.10;;;1.20;;
79710;SDS011;69465;51.630;6.570;2023-06-26T12:34:33;2.80;;;1.13;;
79710;SDS011;69465;51.630;6.570;2023-06-26T12:37:04;2.70;;;1.30;;
79710;SDS011;69465;51.630;6.570;2023-06-26T12:42:20;5.10;;;1.43;;
79710;SDS011;69465;51.630;6.570;2023-06-26T12:44:51;2.70;;;1.50;;
79710;SDS011;69465;51.630;6.570;2023-06-26T12:47:22;3.77;;;1.33;;
79710;SDS011;69465;51.630;6.570;2023-06-26T12:49:51;3.67;;;1.57;;
79710;SDS011;69465;51.630;6.570;2023-06-26T12:52:18;4.40;;;1.40;;
79710;SDS011;69465;51.630;6.570;2023-06-26T12:54:45;4.77;;;1.40;;
79710;SDS011;69465;51.630;6.570;2023-06-26T12:57:13;3.37;;;1.53;;
79710;SDS011;69465;51.630;6.570;2023-06-26T12:59:40;3.73;;;1.30;;
79710;SDS011;69465;51.630;6.570;2023-06-26T13:02:07;5.53;;;1.77;;
79710;SDS011;69465;51.630;6.570;2023-06-26T13:04:34;7.67;;;1.43;;
79710;SDS011;69465;51.630;6.570;2023-06-26T13:07:01;1.97;;;1.30;;
79710;SDS011;69465;51.630;6.570;2023-06-26T13:09:32;2.77;;;1.30;;
79710;SDS011;69465;51.630;6.570;2023-06-26T13:12:00;1.73;;;1.20;;
79710;SDS011;69465;51.630;6.570;2023-06-26T13:14:26;3.40;;;1.67;;
79710;SDS011;69465;51.630;6.570;2023-06-26T13:16:53;3.73;;;1.47;;
79710;SDS011;69465;51.630;6.570;2023-06-26T13:19:19;5.40;;;1.50;;
79710;SDS011;69465;51.630;6.570;2023-06-26T13:21:46;4.83;;;1.30;;
79710;SDS011;69465;51.630;6.570;2023-06-26T13:24:13;7.30;;;1.60;;
79710;SDS011;69465;51.630;6.570;2023-06-26T13:26:39;3.63;;;1.30;;
79710;SDS011;69465;51.630;6.570;2023-06-26T13:29:06;4.43;;;1.67;;
79710;SDS011;69465;51.630;6.570;2023-06-26T13:31:33;3.37;;;1.50;;
79710;SDS011;69465;51.630;6.570;2023-06-26T13:34:00;3.40;;;1.40;;
79710;SDS011;69465;51.630;6.570;2023-06-26T13:36:28;4.27;;;1.67;;
79710;SDS011;69465;51.630;6.570;2023-06-26T13:38:54;3.30;;;1.50;;
79710;SDS011;69465;51.630;6.570;2023-06-26T13:41:24;2.07;;;1.63;;
79710;SDS011;69465;51.630;6.570;2023-06-26T13:43:51;4.33;;;1.63;;
79710;SDS011;69465;51.630;6.570;2023-06-26T13:46:21;4.77;;;1.63;;
79710;SDS011;69465;51.630;6.570;2023-06-26T13:48:48;4.27;;;1.30;;
79710;SDS011;69465;51.630;6.570;2023-06-26T13:51:15;3.03;;;1.53;;
79710;SDS011;69465;51.630;6.570;2023-06-26T13:53:41;3.90;;;1.47;;
79710;SDS011;69465;51.630;6.570;2023-06-26T13:56:08;5.30;;;1.53;;
79710;SDS011;69465;51.630;6.570;2023-06-26T13:58:35;3.10;;;1.70;;
79710;SDS011;69465;51.630;6.570;2023-06-26T15:58:29;2.93;;;1.80;;
79710;SDS011;69465;51.630;6.570;2023-06-26T19:31:11;3.63;;;1.40;;
79710;SDS011;69465;51.630;6.570;2023-06-26T19:33:37;2.37;;;1.23;;
79710;SDS011;69465;51.630;6.570;2023-06-26T19:36:04;2.60;;;1.80;;
79710;SDS011;69465;51.630;6.570;2023-06-26T19:38:31;3.23;;;1.30;;
79710;SDS011;69465;51.630;6.570;2023-06-26T19:40:57;4.17;;;2.13;;
79710;SDS011;69465;51.630;6.570;2023-06-26T19:43:24;4.70;;;1.63;;
79710;SDS011;69465;51.630;6.570;2023-06-26T19:45:50;3.27;;;1.57;;
79710;SDS011;69465;51.630;6.570;2023-06-26T19:48:17;3.00;;;1.70;;
79710;SDS011;69465;51.630;6.570;2023-06-26T19:50:43;1.60;;;1.50;;
79710;SDS011;69465;51.630;6.570;2023-06-26T19:53:10;2.67;;;1.50;;
79710;SDS011;69465;51.630;6.570;2023-06-26T19:55:37;6.57;;;1.67;;
79710;SDS011;69465;51.630;6.570;2023-06-26T19:58:04;4.77;;;1.70;;
79710;SDS011;69465;51.630;6.570;2023-06-26T20:00:31;3.23;;;1.87;;
79710;SDS011;69465;51.630;6.570;2023-06-26T20:02:58;4.17;;;2.00;;
79710;SDS011;69465;51.630;6.570;2023-06-26T20:05:24;3.67;;;1.97;;
79710;SDS011;69465;51.630;6.570;2023-06-26T20:07:51;6.07;;;2.23;;
79710;SDS011;69465;51.630;6.570;2023-06-26T20:10:18;5.90;;;2.03;;
79710;SDS011;69465;51.630;6.570;2023-06-26T20:12:44;5.00;;;1.90;;
79710;SDS011;69465;51.630;6.570;2023-06-26T20:15:11;3.63;;;1.63;;
79710;SDS011;69465;51.630;6.570;2023-06-26T20:17:38;6.60;;;1.87;;
79710;SDS011;69465;51.630;6.570;2023-06-26T20:20:05;2.20;;;1.73;;